createdAt,value
2022-11-01T21:05:45.655Z,46.30
2022-11-01T21:08:24.264Z,50.30
2022-11-01T21:11:02.411Z,52.97
2022-11-01T21:13:45.764Z,55.28
2022-11-01T21:16:31.438Z,54.38
2022-11-01T21:19:05.013Z,54.95
2022-11-01T21:21:45.259Z,53.88
2022-11-01T21:24:36.416Z,53.67
2022-11-01T21:30:20.122Z,53.83
2022-11-01T21:32:55.142Z,51.15
2022-11-01T21:35:39.023Z,52.17
2022-11-01T21:38:45.909Z,47.38
2022-11-01T21:41:24.721Z,48.08
2022-11-01T21:44:11.370Z,49.30
2022-11-01T21:47:14.034Z,49.15
2022-11-01T21:49:46.992Z,48.10
2022-11-01T21:52:20.278Z,48.72
2022-11-01T21:54:53.237Z,50.60
2022-11-01T21:57:25.886Z,50.47
2022-11-01T22:00:00.627Z,48.60
2022-11-01T22:02:33.474Z,50.35
2022-11-01T22:05:06.424Z,44.25
2022-11-01T22:07:46.222Z,49.33
2022-11-01T22:10:24.303Z,47.60
2022-11-01T22:12:57.009Z,47.35
2022-11-01T22:15:29.466Z,44.90
2022-11-01T22:18:02.153Z,45.67
2022-11-01T22:20:41.521Z,47.88
2022-11-01T22:23:16.957Z,44.70
2022-11-01T22:25:49.465Z,45.42
2022-11-01T22:28:22.216Z,44.33
2022-11-01T22:30:55.042Z,46.15
2022-11-01T22:33:28.913Z,45.80
2022-11-01T22:36:16.825Z,42.58
2022-11-01T22:38:49.818Z,44.28
2022-11-01T22:41:33.221Z,38.95
2022-11-01T22:44:12.459Z,42.97
2022-11-01T22:46:59.082Z,42.50
2022-11-01T22:49:44.814Z,44.72
2022-11-01T22:52:29.687Z,41.10
2022-11-01T22:55:21.079Z,41.63
2022-11-01T22:57:55.350Z,44.75
2022-11-01T23:00:37.173Z,37.25
2022-11-01T23:03:28.434Z,45.08
2022-11-01T23:06:16.648Z,39.03
2022-11-01T23:08:49.154Z,43.67
2022-11-01T23:11:41.296Z,41.17
2022-11-01T23:14:37.949Z,44.13
2022-11-01T23:17:15.857Z,27.00
2022-11-01T23:19:59.636Z,42.78
2022-11-01T23:22:35.286Z,34.65
2022-11-01T23:25:09.367Z,41.60
2022-11-01T23:27:44.981Z,37.28
2022-11-01T23:30:17.573Z,39.15
2022-11-01T23:32:50.250Z,36.03
2022-11-01T23:35:22.845Z,41.45
2022-11-01T23:37:58.105Z,43.22
2022-11-01T23:40:33.794Z,40.58
2022-11-01T23:43:21.241Z,42.70
2022-11-01T23:45:54.228Z,41.13
2022-11-01T23:48:27.018Z,27.15
2022-11-01T23:50:59.913Z,44.40
2022-11-01T23:53:38.283Z,45.15
2022-11-01T23:56:14.509Z,43.90
2022-11-01T23:58:55.873Z,29.40
